Current | Forecast
Updated: 6:00 PM CEST on June 21, 2018
Observed at Sabadell, Spain
Temperature 32°C
Humidity 31%
Dew Point 13°C
Wind ESE at 11 km/h
Pressure 1016 hPa (Steady)
Conditions Clear
Visibility -
UV N/A
Clouds
Yesterday's Maximum 30°C
Yesterday's Minimum 16°C approx.
Yesterday's Cooling Degree Days 8 approx.
Sunrise6:17 AM CEST
Sunset9:28 PM CEST
Moon Rise2:53 PM CEST
Moon Set2:30 AM CEST
Moon PhaseMoon Phase
Waxing Gibbous
Raw METARMETAR LELL 211600Z 11006KT 070V160 CAVOK 32/13 Q1016


Monday
. High: 86° F.
Tuesday
. High: 80° F.
Wednesday
. High: 82° F.
Thursday
. High: 77° F.
Friday
. High: 77° F.
Saturday
. High: 82° F.
Sunday
. High: 86° F.
Monday
. High: 80° F.

Click here for Marine Information
Scientific forecaster discussion (NWS)

Units: English | Metric

Find the Weather for any City, State or Zipcode, or Country:

U.S. State List | Severe Weather | Tropical Storms | Ski Conditions
United States | Canada | Central America | South America | Asia | Europe | Australia | Africa | Islands

Weather Underground

© Copyright 2018
The Weather Company, LLC